Weather at Andrews County Airport

Public forecast

Using degrees Fahrenheit for public forecast. Weather courtesy of forecast.io.

Current aviation weather report (METAR) for Andrews County Airport

Retrieved UTC (0 seconds ago):

Closest aviation forecast (TAF) to Andrews County Airport

Closest forecast is Midland International Airport, 28.7 nm (53.1 km) SE. Retrieved 2021/01/16 18:22 UTC (1 hour ago):

TAF KMAF 161720Z 1618/1718 18007KT P6SM SCT250 FM162300 27008KT P6SM BKN250 FM170200 01010KT P6SM FEW250